createdAt,value
2018-09-24T07:26:00.121Z,2.60
2018-09-24T07:27:00.794Z,3.30
2018-09-24T07:28:01.539Z,3.80
2018-09-24T07:29:05.666Z,3.60
2018-09-24T07:30:06.591Z,3.60
2018-09-24T07:31:10.504Z,3.10
2018-09-24T07:32:11.406Z,3.10
2018-09-24T07:33:12.584Z,3.10
2018-09-24T07:34:14.532Z,3.00
2018-09-24T07:35:15.256Z,2.90
2018-09-24T07:36:15.925Z,2.60
2018-09-24T07:37:16.741Z,2.70
2018-09-24T07:38:17.528Z,2.70
2018-09-24T07:40:18.472Z,3.00
2018-09-24T07:41:54.531Z,2.70
2018-09-24T07:44:53.225Z,2.60
2018-09-24T07:47:34.318Z,2.60
2018-09-24T07:48:10.302Z,4.70
2018-09-24T07:49:11.142Z,10.00
2018-09-24T07:50:11.823Z,10.90
2018-09-24T07:51:12.477Z,3.70
2018-09-24T07:52:14.500Z,3.40
2018-09-24T07:53:18.264Z,3.00
2018-09-24T07:54:20.337Z,3.00
2018-09-24T07:55:21.260Z,2.70
2018-09-24T07:56:22.057Z,2.60
2018-09-24T07:57:47.171Z,2.90
2018-09-24T07:58:51.338Z,2.40
2018-09-24T07:59:52.038Z,2.80
2018-09-24T08:00:52.806Z,2.20
2018-09-24T08:01:53.493Z,2.30
2018-09-24T08:02:54.168Z,2.70
2018-09-24T08:03:54.818Z,2.20
2018-09-24T08:04:58.171Z,2.50
2018-09-24T08:05:58.961Z,2.30
2018-09-24T08:07:10.600Z,2.40
2018-09-24T08:08:11.265Z,2.40
2018-09-24T08:09:11.962Z,2.10
2018-09-24T08:10:22.680Z,2.30
2018-09-24T08:11:23.465Z,2.30
2018-09-24T08:12:24.192Z,2.20
2018-09-24T08:13:47.524Z,2.60
2018-09-24T08:14:50.932Z,2.30
2018-09-24T08:15:51.692Z,2.30
2018-09-24T08:16:52.599Z,2.40
2018-09-24T08:18:02.991Z,2.30
2018-09-24T08:19:04.759Z,2.50
2018-09-24T08:20:10.637Z,2.30
2018-09-24T08:21:27.526Z,2.40
2018-09-24T08:22:28.234Z,2.50
2018-09-24T08:23:28.893Z,2.20
2018-09-24T08:24:29.623Z,2.30
2018-09-24T08:25:30.514Z,2.50
2018-09-24T08:26:32.231Z,2.30
2018-09-24T08:27:32.925Z,2.30
2018-09-24T08:28:46.429Z,2.20
2018-09-24T08:29:47.145Z,2.50
2018-09-24T08:30:51.515Z,2.10
2018-09-24T08:31:52.406Z,2.10
2018-09-24T08:32:56.532Z,2.40
2018-09-24T08:34:57.551Z,2.30
2018-09-24T08:36:58.516Z,2.20
2018-09-24T08:38:00.357Z,2.20
2018-09-24T08:39:01.020Z,2.10
2018-09-24T08:40:34.625Z,2.30
2018-09-24T08:41:35.391Z,2.30
2018-09-24T08:42:36.030Z,2.20
2018-09-24T08:43:39.196Z,2.30
2018-09-24T08:44:44.952Z,2.20
2018-09-24T08:45:46.700Z,2.40
2018-09-24T08:46:47.473Z,2.50
2018-09-24T08:47:48.545Z,2.20
2018-09-24T08:48:49.446Z,2.10
2018-09-24T08:49:50.154Z,2.20
2018-09-24T08:52:47.082Z,2.10
2018-09-24T08:53:56.116Z,2.10
2018-09-24T08:54:56.864Z,2.20
2018-09-24T08:57:29.983Z,2.00
2018-09-24T08:58:35.474Z,2.00
2018-09-24T08:59:36.173Z,2.10
2018-09-24T09:00:48.523Z,2.20
2018-09-24T09:01:49.304Z,2.20
2018-09-24T09:02:50.162Z,2.30
2018-09-24T09:03:50.907Z,1.90
2018-09-24T09:05:23.142Z,2.10
2018-09-24T09:06:24.449Z,2.00
2018-09-24T09:07:25.098Z,2.00
2018-09-24T09:08:25.773Z,2.10
2018-09-24T09:09:26.476Z,2.00
2018-09-24T09:10:28.439Z,2.00
2018-09-24T09:11:30.042Z,2.00
2018-09-24T09:12:30.724Z,2.00
2018-09-24T09:13:31.357Z,2.30
2018-09-24T09:14:35.800Z,2.10
2018-09-24T09:15:40.067Z,2.10
2018-09-24T09:16:42.737Z,2.10
2018-09-24T09:17:43.424Z,2.20
2018-09-24T09:18:44.149Z,2.00
2018-09-24T09:19:44.793Z,2.10
2018-09-24T09:20:45.432Z,2.30
2018-09-24T09:21:46.092Z,2.10
2018-09-24T09:22:46.785Z,2.40
2018-09-24T09:23:47.468Z,2.00
2018-09-24T09:24:54.549Z,2.10
2018-09-24T09:25:55.240Z,1.90
2018-09-24T09:26:55.921Z,2.10
2018-09-24T09:27:56.637Z,2.10
2018-09-24T09:28:59.855Z,2.00
2018-09-24T09:30:01.524Z,2.00
2018-09-24T09:31:02.724Z,1.90
2018-09-24T09:32:03.959Z,2.40
2018-09-24T09:33:04.653Z,1.70
2018-09-24T09:34:06.254Z,1.90
2018-09-24T09:35:17.793Z,2.10
2018-09-24T09:36:19.422Z,1.90
2018-09-24T09:37:21.149Z,1.80
2018-09-24T09:38:38.073Z,2.10
2018-09-24T09:39:38.790Z,2.10
2018-09-24T09:40:39.489Z,1.70
2018-09-24T09:41:40.177Z,1.80
2018-09-24T09:42:42.802Z,1.80
2018-09-24T09:43:45.094Z,1.80
2018-09-24T09:44:46.933Z,1.70
2018-09-24T09:46:13.720Z,1.90
2018-09-24T09:47:14.750Z,1.80
2018-09-24T09:48:15.452Z,2.00
2018-09-24T09:49:17.513Z,2.00
2018-09-24T09:50:53.412Z,1.90
2018-09-24T09:51:56.055Z,1.90
2018-09-24T09:52:57.055Z,2.10
2018-09-24T09:53:57.923Z,2.00
2018-09-24T09:54:58.626Z,1.80
2018-09-24T09:56:11.373Z,1.80
2018-09-24T09:57:20.916Z,1.80
2018-09-24T09:58:23.534Z,1.90
2018-09-24T09:59:25.527Z,1.60
2018-09-24T10:00:27.796Z,1.60
2018-09-24T10:01:29.509Z,1.90
2018-09-24T10:02:34.478Z,1.70
2018-09-24T10:03:35.125Z,1.80
2018-09-24T10:04:35.976Z,1.90
2018-09-24T10:05:40.091Z,1.50
2018-09-24T10:06:40.808Z,1.50
2018-09-24T10:07:42.745Z,2.00
2018-09-24T10:08:43.570Z,1.50
2018-09-24T10:09:44.333Z,1.80
2018-09-24T10:10:46.913Z,1.80
2018-09-24T10:11:47.599Z,1.80
2018-09-24T10:13:12.007Z,1.70
2018-09-24T10:14:12.676Z,1.70
2018-09-24T10:15:17.449Z,1.70
2018-09-24T10:16:18.894Z,1.80
2018-09-24T10:17:55.950Z,1.90
2018-09-24T10:19:27.717Z,1.60
2018-09-24T10:20:30.035Z,1.60
2018-09-24T10:21:30.724Z,1.80
2018-09-24T10:22:54.047Z,1.70
2018-09-24T10:23:54.726Z,1.70
2018-09-24T10:24:55.372Z,1.80
2018-09-24T10:26:16.434Z,1.80
2018-09-24T10:27:17.234Z,1.70
2018-09-24T10:28:18.202Z,1.60
2018-09-24T10:29:28.169Z,1.70
2018-09-24T10:30:29.011Z,1.70
2018-09-24T10:31:29.679Z,1.80
2018-09-24T10:32:30.377Z,1.70
2018-09-24T10:33:31.115Z,1.80
2018-09-24T10:34:31.790Z,1.90
2018-09-24T10:35:54.776Z,1.60
2018-09-24T10:36:55.425Z,1.80
2018-09-24T10:37:59.118Z,1.80
2018-09-24T10:38:59.907Z,1.90
2018-09-24T10:40:00.604Z,2.10
2018-09-24T10:41:01.246Z,1.70
2018-09-24T10:42:02.603Z,1.80
2018-09-24T10:43:03.411Z,2.20
2018-09-24T10:44:04.520Z,1.40
2018-09-24T10:45:05.206Z,1.50
2018-09-24T10:46:05.900Z,1.80
2018-09-24T10:47:10.144Z,1.80
2018-09-24T10:48:11.543Z,1.80
2018-09-24T10:49:12.197Z,1.80
2018-09-24T10:50:12.918Z,2.00
2018-09-24T10:51:13.556Z,1.50
2018-09-24T10:52:14.236Z,1.70
2018-09-24T10:53:14.866Z,1.70
2018-09-24T10:54:15.564Z,1.70
2018-09-24T10:55:18.192Z,1.80
2018-09-24T10:57:58.876Z,1.70
2018-09-24T10:58:59.623Z,2.00
2018-09-24T11:00:00.591Z,2.00
2018-09-24T11:02:49.983Z,1.60
2018-09-24T11:03:50.706Z,1.90
2018-09-24T11:04:51.516Z,1.90
2018-09-24T11:05:52.271Z,1.80
2018-09-24T11:07:10.569Z,2.10
2018-09-24T11:08:11.348Z,2.10
2018-09-24T11:09:15.041Z,2.00
2018-09-24T11:10:16.554Z,2.00
2018-09-24T11:11:17.253Z,1.80
2018-09-24T11:13:09.266Z,1.50
2018-09-24T11:14:12.603Z,1.50
2018-09-24T11:15:14.079Z,1.70
2018-09-24T11:16:14.905Z,1.70
2018-09-24T11:17:15.720Z,1.60
2018-09-24T11:18:16.439Z,1.80
2018-09-24T11:19:22.123Z,1.60
2018-09-24T11:20:22.845Z,1.70
2018-09-24T11:21:41.289Z,1.70
2018-09-24T11:22:45.149Z,1.40
2018-09-24T11:23:45.844Z,1.80
2018-09-24T11:24:54.283Z,1.90
2018-09-24T11:25:55.006Z,1.40
2018-09-24T11:26:55.763Z,1.40
2018-09-24T11:28:00.669Z,1.60
2018-09-24T11:29:02.366Z,1.40
2018-09-24T11:30:05.794Z,1.70
2018-09-24T11:31:17.267Z,1.60
2018-09-24T11:32:30.381Z,1.60
2018-09-24T11:33:31.173Z,1.60
2018-09-24T11:34:31.883Z,1.50
2018-09-24T11:35:35.635Z,1.80
2018-09-24T11:36:50.017Z,1.60
2018-09-24T11:37:50.741Z,1.70
2018-09-24T11:39:02.303Z,1.70
2018-09-24T11:40:19.638Z,1.80
2018-09-24T11:42:35.965Z,1.50
2018-09-24T11:43:50.034Z,1.50
2018-09-24T11:44:50.868Z,1.40
2018-09-24T11:45:52.941Z,1.30
2018-09-24T11:46:54.408Z,1.50
2018-09-24T11:47:55.138Z,1.80
2018-09-24T11:49:00.343Z,1.60
2018-09-24T11:50:01.042Z,1.60
2018-09-24T11:51:20.089Z,1.60
2018-09-24T11:52:20.821Z,1.50
2018-09-24T11:53:21.536Z,1.60
2018-09-24T11:54:23.336Z,1.80
2018-09-24T11:55:24.190Z,1.80
2018-09-24T11:56:24.857Z,1.60
2018-09-24T11:57:25.511Z,1.40
2018-09-24T11:58:47.740Z,1.70
2018-09-24T11:59:48.459Z,1.60
2018-09-24T12:00:51.693Z,1.80
2018-09-24T12:01:56.225Z,1.80
2018-09-24T12:02:56.897Z,1.80
2018-09-24T12:03:57.570Z,1.70
2018-09-24T12:04:58.232Z,1.60
2018-09-24T12:05:58.881Z,2.00
2018-09-24T12:07:30.086Z,1.50
2018-09-24T12:08:30.832Z,1.50
2018-09-24T12:09:46.409Z,1.60
2018-09-24T12:10:49.709Z,1.70
2018-09-24T12:11:56.715Z,1.70
2018-09-24T12:12:57.433Z,1.40
2018-09-24T12:13:58.139Z,1.50
2018-09-24T12:14:58.781Z,1.50
2018-09-24T12:16:00.229Z,1.60
2018-09-24T12:17:00.944Z,1.50
2018-09-24T12:18:04.820Z,1.50
2018-09-24T12:19:05.560Z,1.50
2018-09-24T12:20:06.301Z,1.40
2018-09-24T12:21:06.945Z,1.60
2018-09-24T12:22:07.612Z,1.70
2018-09-24T12:23:08.258Z,1.70
2018-09-24T12:24:09.023Z,1.70
2018-09-24T12:25:11.182Z,1.70
2018-09-24T12:26:11.914Z,1.50
2018-09-24T12:27:12.618Z,1.30
2018-09-24T12:28:13.467Z,1.80
2018-09-24T12:29:14.161Z,1.70
2018-09-24T12:30:15.003Z,1.40
2018-09-24T12:31:16.377Z,1.60
2018-09-24T12:32:17.126Z,1.30
2018-09-24T12:33:17.788Z,1.40
2018-09-24T12:34:19.651Z,1.30
2018-09-24T12:35:20.406Z,1.30
2018-09-24T12:36:21.149Z,1.40
2018-09-24T12:37:21.895Z,1.60
2018-09-24T12:38:26.279Z,1.40
2018-09-24T12:39:27.065Z,1.40
2018-09-24T12:40:27.734Z,1.30
2018-09-24T12:41:28.410Z,1.30
2018-09-24T12:42:29.719Z,1.30
2018-09-24T12:43:30.438Z,1.50
2018-09-24T12:44:32.838Z,1.20
2018-09-24T12:45:33.594Z,1.50
2018-09-24T12:46:34.349Z,1.60
2018-09-24T12:47:35.050Z,1.40
2018-09-24T12:48:58.988Z,1.40
2018-09-24T12:50:14.968Z,1.40
2018-09-24T12:51:50.759Z,1.50
2018-09-24T12:52:51.629Z,1.60
2018-09-24T12:54:02.333Z,1.60
2018-09-24T12:55:10.879Z,1.50
2018-09-24T12:56:42.582Z,1.80
2018-09-24T12:57:44.378Z,1.60
2018-09-24T12:58:45.637Z,1.50
2018-09-24T12:59:48.965Z,1.70
2018-09-24T13:00:49.724Z,1.30
2018-09-24T13:01:50.413Z,1.60
2018-09-24T13:02:51.135Z,1.50
2018-09-24T13:04:22.750Z,1.50
2018-09-24T13:05:23.431Z,1.40
2018-09-24T13:06:24.193Z,1.40
2018-09-24T13:07:28.472Z,1.50
2018-09-24T13:08:32.703Z,1.50
2018-09-24T13:09:33.439Z,1.50
2018-09-24T13:10:34.091Z,1.60
2018-09-24T13:11:48.477Z,1.70
2018-09-24T13:12:49.758Z,1.70
2018-09-24T13:13:50.535Z,1.70
2018-09-24T13:14:51.239Z,1.40
2018-09-24T13:15:51.968Z,1.50
2018-09-24T13:17:12.065Z,1.50
2018-09-24T13:18:18.191Z,1.60
2018-09-24T13:19:18.896Z,1.40
2018-09-24T13:20:19.638Z,1.60
2018-09-24T13:21:20.326Z,1.60
2018-09-24T13:22:21.003Z,1.50
2018-09-24T13:23:45.249Z,1.50
2018-09-24T13:24:45.929Z,1.50
2018-09-24T13:25:46.650Z,1.80
2018-09-24T13:26:47.371Z,1.50
2018-09-24T13:27:48.009Z,1.70
2018-09-24T13:28:48.725Z,1.60
2018-09-24T13:29:49.443Z,1.80
2018-09-24T13:30:51.016Z,1.50
2018-09-24T13:31:51.706Z,1.60
2018-09-24T13:32:52.454Z,1.70
2018-09-24T13:33:53.137Z,1.50
2018-09-24T13:34:53.832Z,1.60
2018-09-24T13:36:18.315Z,1.50
2018-09-24T13:38:19.320Z,1.60
2018-09-24T13:39:26.083Z,1.60
2018-09-24T13:40:26.965Z,1.30
2018-09-24T13:41:46.549Z,1.30
2018-09-24T13:42:47.429Z,1.50
2018-09-24T13:44:48.466Z,1.50
2018-09-24T13:45:49.200Z,1.60
2018-09-24T13:46:58.258Z,1.60
2018-09-24T13:47:58.980Z,1.50
2018-09-24T13:48:59.673Z,1.50
2018-09-24T13:50:06.349Z,1.50
2018-09-24T13:51:07.104Z,1.40
2018-09-24T13:52:07.991Z,1.70
2018-09-24T13:53:08.761Z,1.60
2018-09-24T13:54:11.515Z,1.60
2018-09-24T13:55:12.208Z,1.40
2018-09-24T13:56:13.496Z,1.50
2018-09-24T13:57:16.731Z,1.50
2018-09-24T13:58:17.433Z,1.50
2018-09-24T13:59:18.088Z,1.50
2018-09-24T14:00:18.804Z,1.20
2018-09-24T14:01:47.364Z,1.60
2018-09-24T14:02:52.917Z,1.50
2018-09-24T14:03:53.725Z,1.60
2018-09-24T14:04:55.797Z,1.60
2018-09-24T14:05:58.895Z,1.90
2018-09-24T14:07:03.585Z,1.80
2018-09-24T14:08:04.799Z,1.40
2018-09-24T14:09:06.960Z,1.50
2018-09-24T14:10:07.703Z,1.70
2018-09-24T14:11:08.356Z,1.60
2018-09-24T14:12:09.610Z,1.60
2018-09-24T14:13:10.403Z,1.80
2018-09-24T14:14:11.445Z,1.70
2018-09-24T14:15:12.324Z,1.60
2018-09-24T14:16:15.164Z,1.50
2018-09-24T14:17:15.880Z,1.60
2018-09-24T14:18:16.627Z,1.80
2018-09-24T14:19:17.291Z,2.90
2018-09-24T14:20:18.048Z,4.80
2018-09-24T14:21:19.370Z,1.90
2018-09-24T14:22:21.859Z,1.90
2018-09-24T14:23:26.618Z,1.70
2018-09-24T14:24:31.313Z,1.60
2018-09-24T14:25:32.723Z,1.70
2018-09-24T14:26:37.437Z,1.40
2018-09-24T14:27:38.748Z,1.70
2018-09-24T14:28:46.771Z,1.50
2018-09-24T14:30:17.103Z,1.50
2018-09-24T14:31:27.321Z,1.50
2018-09-24T14:32:28.007Z,1.70
2018-09-24T14:33:28.725Z,1.50
2018-09-24T14:34:29.461Z,1.60
2018-09-24T14:35:30.104Z,1.90
2018-09-24T14:37:31.033Z,1.30
2018-09-24T14:40:21.327Z,1.50
2018-09-24T14:41:22.032Z,1.60
2018-09-24T14:42:47.506Z,1.30
2018-09-24T14:43:48.231Z,1.30
2018-09-24T14:44:48.986Z,1.60
2018-09-24T14:45:49.668Z,1.50
2018-09-24T14:46:50.413Z,1.70
2018-09-24T14:47:51.154Z,1.40
2018-09-24T14:49:53.051Z,1.60
2018-09-24T14:50:54.110Z,1.40
2018-09-24T14:51:55.559Z,1.60
2018-09-24T14:52:56.325Z,1.30
2018-09-24T14:53:57.012Z,1.40
2018-09-24T14:55:16.905Z,1.30
2018-09-24T14:57:17.914Z,1.70
2018-09-24T14:58:18.639Z,1.60
2018-09-24T15:00:08.402Z,1.50
2018-09-24T15:01:46.800Z,1.50
2018-09-24T15:02:47.450Z,1.60
2018-09-24T15:03:49.905Z,1.40
2018-09-24T15:04:51.236Z,1.60
2018-09-24T15:05:52.001Z,1.50
2018-09-24T15:06:56.204Z,1.60
2018-09-24T15:07:57.510Z,1.50
2018-09-24T15:08:58.226Z,1.70
2018-09-24T15:09:58.875Z,1.50
2018-09-24T15:11:17.965Z,1.30
2018-09-24T15:12:34.556Z,1.40
2018-09-24T15:13:35.418Z,1.50
2018-09-24T15:14:36.462Z,1.60
2018-09-24T15:15:37.250Z,1.30
2018-09-24T15:17:38.281Z,1.30
2018-09-24T15:18:38.977Z,1.30
2018-09-24T15:19:39.797Z,1.50
2018-09-24T15:20:40.463Z,1.50
2018-09-24T15:21:41.221Z,1.60
2018-09-24T15:22:42.091Z,1.40
2018-09-24T15:23:49.231Z,1.30
2018-09-24T15:24:50.054Z,1.40
2018-09-24T15:25:50.800Z,1.40
2018-09-24T15:26:51.555Z,1.50
2018-09-24T15:27:52.283Z,1.50
2018-09-24T15:28:52.991Z,1.50
2018-09-24T15:29:53.777Z,1.50
2018-09-24T15:31:54.755Z,1.40
2018-09-24T15:34:41.306Z,1.50
2018-09-24T15:35:41.956Z,1.60
2018-09-24T15:36:49.356Z,1.60
2018-09-24T15:37:50.043Z,1.40
2018-09-24T15:38:50.788Z,1.50
2018-09-24T15:40:20.535Z,1.70
2018-09-24T15:41:21.223Z,1.70
2018-09-24T15:42:21.968Z,1.60
2018-09-24T15:43:22.781Z,1.40
2018-09-24T15:44:23.472Z,1.40
2018-09-24T15:45:24.167Z,1.50
2018-09-24T15:46:25.834Z,1.40
2018-09-24T15:47:27.291Z,1.30
2018-09-24T15:48:28.043Z,1.10
2018-09-24T15:49:28.744Z,1.40
2018-09-24T15:51:12.072Z,1.50
2018-09-24T15:52:14.595Z,1.60
2018-09-24T15:53:23.230Z,1.60
2018-09-24T15:54:23.917Z,1.50
2018-09-24T15:55:25.523Z,1.40
2018-09-24T15:56:27.055Z,1.40
2018-09-24T15:57:27.776Z,1.50
2018-09-24T15:58:28.443Z,1.50
2018-09-24T15:59:30.551Z,1.40
2018-09-24T16:00:31.394Z,1.40
2018-09-24T16:01:38.912Z,1.20
2018-09-24T16:02:40.100Z,1.60
2018-09-24T16:03:40.808Z,1.50
2018-09-24T16:04:41.454Z,1.40
2018-09-24T16:05:42.091Z,1.50
2018-09-24T16:06:42.805Z,1.40
2018-09-24T16:07:47.069Z,1.40
2018-09-24T16:09:17.553Z,1.40
2018-09-24T16:10:18.787Z,1.40
2018-09-24T16:12:08.698Z,1.40
2018-09-24T16:13:09.396Z,1.40
2018-09-24T16:14:10.090Z,1.40
2018-09-24T16:15:45.524Z,1.50
2018-09-24T16:16:46.311Z,1.10
2018-09-24T16:17:47.085Z,1.50
2018-09-24T16:18:47.799Z,1.30
2018-09-24T16:19:48.468Z,1.40
2018-09-24T16:21:24.523Z,1.60
2018-09-24T16:22:47.015Z,1.70
2018-09-24T16:23:47.735Z,1.30
2018-09-24T16:24:48.480Z,1.70
2018-09-24T16:25:49.192Z,1.50
2018-09-24T16:26:49.876Z,1.50
2018-09-24T16:27:50.697Z,1.40
